Time;durP1;ratioP1;P1;durP2;ratioP2;P2;SDS_P1;SDS_P2;PMS_P1;PMS_P2;Temp;Humidity;BMP_temperature;BMP_pressure;BME280_temperature;BME280_humidity;BME280_pressure;Samples;Min_cycle;Max_cycle;Signal;HPM_P1;HPM_P2
2021/10/25 00:00:38;;;;;;;;;;;;;;;13.65;nan;98534.78;5079244;28;19928;-77
2021/10/25 00:03:05;;;;;;;;;;;;;;;13.50;nan;98547.78;5094354;28;19924;-77
2021/10/25 00:05:32;;;;;;;;;;;;;;;13.97;nan;98540.00;5077692;28;19928;-77
2021/10/25 00:07:59;;;;;;;;;;;;;;;14.18;nan;98534.38;5078499;28;20364;-77
2021/10/25 00:10:26;;;;;;;;;;;;;;;13.89;nan;98533.09;5075140;28;19928;-77
2021/10/25 00:12:53;;;;;;;;;;;;;;;13.72;nan;98528.94;5089427;28;20297;-77
2021/10/25 00:15:21;;;;;;;;;;;;;;;13.50;nan;98539.34;5096531;28;19931;-77
2021/10/25 00:17:48;;;;;;;;;;;;;;;14.06;nan;98526.03;5078472;28;20359;-77
2021/10/25 00:20:15;;;;;;;;;;;;;;;14.29;nan;98536.81;5096231;28;19998;-77
2021/10/25 00:22:43;;;;;;;;;;;;;;;13.74;nan;98540.47;5075171;28;19928;-77
2021/10/25 00:25:10;;;;;;;;;;;;;;;13.40;nan;98532.13;5091847;28;19928;-77
2021/10/25 00:27:38;;;;;;;;;;;;;;;13.18;nan;98534.09;5096528;28;19932;-77
2021/10/25 00:30:06;;;;;;;;;;;;;;;13.42;nan;98538.06;5078255;28;19930;-77
2021/10/25 00:32:36;;;;;;;;;;;;;;;13.61;nan;98531.34;5096447;28;19924;-77
2021/10/25 00:35:03;;;;;;;;;;;;;;;13.70;nan;98520.97;5074702;28;19924;-77
2021/10/25 00:37:31;;;;;;;;;;;;;;;13.99;nan;98526.31;5073375;28;19924;-77
2021/10/25 00:39:59;;;;;;;;;;;;;;;14.04;nan;98523.69;5096206;28;19931;-77
2021/10/25 00:42:26;;;;;;;;;;;;;;;13.98;nan;98527.56;5061821;28;19924;-77
2021/10/25 00:44:54;;;;;;;;;;;;;;;13.66;nan;98514.69;5074800;28;19924;-77
2021/10/25 00:47:21;;;;;;;;;;;;;;;13.59;nan;98514.16;5087231;28;20283;-77
2021/10/25 00:49:48;;;;;;;;;;;;;;;13.57;nan;98516.66;5057681;28;19924;-77
2021/10/25 00:52:15;;;;;;;;;;;;;;;13.86;nan;98522.78;5086336;28;19924;-78
2021/10/25 00:54:43;;;;;;;;;;;;;;;13.51;nan;98510.06;5077555;28;20456;-78
2021/10/25 00:57:10;;;;;;;;;;;;;;;13.56;nan;98515.09;5074569;28;20383;-77
2021/10/25 00:59:37;;;;;;;;;;;;;;;13.45;nan;98509.09;5090820;28;19924;-77
2021/10/25 01:02:04;;;;;;;;;;;;;;;13.61;nan;98514.50;5077851;28;19928;-77
2021/10/25 01:04:32;;;;;;;;;;;;;;;13.17;nan;98515.69;5095468;28;20396;-77
2021/10/25 01:07:00;;;;;;;;;;;;;;;13.44;nan;98513.13;5074285;28;19924;-77
2021/10/25 01:09:28;;;;;;;;;;;;;;;13.53;nan;98510.38;5066790;28;19977;-77
2021/10/25 01:11:56;;;;;;;;;;;;;;;13.78;nan;98521.50;5094149;28;19927;-77
2021/10/25 01:14:24;;;;;;;;;;;;;;;13.82;nan;98499.69;5074068;28;20398;-78
2021/10/25 01:16:52;;;;;;;;;;;;;;;13.71;nan;98504.91;5074384;28;19925;-77
2021/10/25 01:19:19;;;;;;;;;;;;;;;14.01;nan;98507.75;5073541;28;19936;-78
2021/10/25 01:21:48;;;;;;;;;;;;;;;13.83;nan;98513.25;5071690;28;19931;-77
2021/10/25 01:24:15;;;;;;;;;;;;;;;13.96;nan;98510.38;5077484;28;19973;-78
2021/10/25 01:26:42;;;;;;;;;;;;;;;14.14;nan;98510.47;5074074;28;19928;-77
2021/10/25 01:29:09;;;;;;;;;;;;;;;13.58;nan;98512.63;5073918;28;19925;-78
2021/10/25 01:31:36;;;;;;;;;;;;;;;13.60;nan;98512.94;5066368;28;19973;-78
2021/10/25 01:34:04;;;;;;;;;;;;;;;13.57;nan;98508.25;5052890;28;19925;-78
2021/10/25 01:36:35;;;;;;;;;;;;;;;13.46;nan;98510.66;5073688;28;19924;-77
2021/10/25 01:39:02;;;;;;;;;;;;;;;13.39;nan;98516.53;5067462;28;19924;-78
2021/10/25 01:41:30;;;;;;;;;;;;;;;13.84;nan;98519.66;5059842;28;19929;-77
2021/10/25 01:43:59;;;;;;;;;;;;;;;13.52;nan;98520.84;5066413;28;19935;-77
2021/10/25 01:46:28;;;;;;;;;;;;;;;13.67;nan;98521.09;5056014;28;19998;-77
2021/10/25 01:48:55;;;;;;;;;;;;;;;13.17;nan;98513.69;5086132;28;19924;-77
2021/10/25 01:51:22;;;;;;;;;;;;;;;13.30;nan;98517.22;5073292;28;19935;-77
2021/10/25 01:53:50;;;;;;;;;;;;;;;13.04;nan;98517.78;5063307;28;19928;-77
2021/10/25 01:56:20;;;;;;;;;;;;;;;13.65;nan;98523.56;5067933;28;19974;-77
2021/10/25 01:58:48;;;;;;;;;;;;;;;13.48;nan;98520.16;5069824;28;19925;-77
2021/10/25 02:01:17;;;;;;;;;;;;;;;13.41;nan;98502.81;5065188;28;19931;-77
2021/10/25 02:03:45;;;;;;;;;;;;;;;13.72;nan;98512.84;5072809;28;19924;-77
2021/10/25 02:06:24;;;;;;;;;;;;;;;13.66;nan;98520.31;5070633;28;19925;-77
2021/10/25 02:08:52;;;;;;;;;;;;;;;13.53;nan;98510.38;5069625;28;19929;-78
2021/10/25 02:11:22;;;;;;;;;;;;;;;13.38;nan;98512.13;5063718;28;19925;-77
2021/10/25 02:13:58;;;;;;;;;;;;;;;13.31;nan;98513.19;5058782;28;19925;-77
2021/10/25 02:16:26;;;;;;;;;;;;;;;13.42;nan;98504.38;5051603;28;20279;-77
2021/10/25 02:18:54;;;;;;;;;;;;;;;13.11;nan;98512.69;5069377;28;19924;-77
2021/10/25 02:21:30;;;;;;;;;;;;;;;12.88;nan;98509.47;5052146;28;20356;-77
2021/10/25 02:23:57;;;;;;;;;;;;;;;13.02;nan;98503.41;5052834;28;19925;-77
2021/10/25 02:26:24;;;;;;;;;;;;;;;12.96;nan;98516.41;5069169;28;19929;-77
2021/10/25 02:28:51;;;;;;;;;;;;;;;12.99;nan;98510.69;5064850;28;19924;-77
2021/10/25 02:31:19;;;;;;;;;;;;;;;12.66;nan;98504.56;5069109;28;19958;-77
2021/10/25 02:33:46;;;;;;;;;;;;;;;13.13;nan;98498.97;5059568;28;20365;-77
2021/10/25 02:36:16;;;;;;;;;;;;;;;12.96;nan;98500.38;5051827;28;19928;-78
2021/10/25 02:38:43;;;;;;;;;;;;;;;13.34;nan;98498.25;5073823;28;19978;-77
2021/10/25 02:41:11;;;;;;;;;;;;;;;13.21;nan;98497.50;5070170;28;20396;-78
2021/10/25 02:43:39;;;;;;;;;;;;;;;13.48;nan;98492.09;5069332;28;19931;-78
2021/10/25 02:46:07;;;;;;;;;;;;;;;13.62;nan;98488.00;5062844;28;20392;-77
2021/10/25 02:48:43;;;;;;;;;;;;;;;13.30;nan;98485.59;5058741;28;20364;-77
2021/10/25 02:51:11;;;;;;;;;;;;;;;13.79;nan;98489.34;5069089;28;19924;-77
2021/10/25 02:53:39;;;;;;;;;;;;;;;13.59;nan;98486.09;5068535;28;20277;-78
2021/10/25 02:56:07;;;;;;;;;;;;;;;13.72;nan;98484.03;5060220;28;19931;-77
2021/10/25 02:58:35;;;;;;;;;;;;;;;13.91;nan;98480.06;5049375;28;20395;-77
2021/10/25 03:01:02;;;;;;;;;;;;;;;13.91;nan;98477.25;5051771;28;19925;-77
2021/10/25 03:03:30;;;;;;;;;;;;;;;13.83;nan;98487.19;5050218;28;19932;-78
2021/10/25 03:05:57;;;;;;;;;;;;;;;13.81;nan;98481.28;5071497;28;20331;-77
2021/10/25 03:08:27;;;;;;;;;;;;;;;14.07;nan;98482.66;5069171;28;19925;-78
2021/10/25 03:10:57;;;;;;;;;;;;;;;13.97;nan;98479.03;5071650;28;19969;-77
2021/10/25 03:13:25;;;;;;;;;;;;;;;13.98;nan;98479.81;5051331;28;19974;-78
2021/10/25 03:15:53;;;;;;;;;;;;;;;14.03;nan;98470.78;5056621;28;20621;-77
2021/10/25 03:18:23;;;;;;;;;;;;;;;14.22;nan;98478.06;5072591;28;19924;-78
2021/10/25 03:20:51;;;;;;;;;;;;;;;14.13;nan;98463.97;5071202;28;19924;-78
2021/10/25 03:23:18;;;;;;;;;;;;;;;13.75;nan;98477.50;5071377;28;19925;-78
2021/10/25 03:25:45;;;;;;;;;;;;;;;13.09;nan;98481.50;5070530;28;19924;-77
2021/10/25 03:28:13;;;;;;;;;;;;;;;13.66;nan;98481.00;5054854;28;20622;-77
2021/10/25 03:30:40;;;;;;;;;;;;;;;13.86;nan;98489.88;5069111;28;19929;-77
2021/10/25 03:33:08;;;;;;;;;;;;;;;13.67;nan;98474.16;5067832;28;19946;-77
2021/10/25 03:36:01;;;;;;;;;;;;;;;13.40;nan;98473.19;5059068;28;20406;-78
2021/10/25 03:38:32;;;;;;;;;;;;;;;13.08;nan;98487.56;5067866;28;19925;-78
2021/10/25 03:41:01;;;;;;;;;;;;;;;13.43;nan;98484.28;5067294;28;19974;-78
2021/10/25 03:43:34;;;;;;;;;;;;;;;13.77;nan;98486.22;5067654;28;19924;-78
2021/10/25 03:48:34;;;;;;;;;;;;;;;13.88;nan;98472.56;5068107;28;19925;-79
2021/10/25 03:51:02;;;;;;;;;;;;;;;13.72;nan;98467.94;5063230;28;19925;-79
2021/10/25 03:53:46;;;;;;;;;;;;;;;13.74;nan;98470.28;5067785;28;19924;-78
2021/10/25 04:27:01;;;;;;;;;;;;;;;13.57;nan;98466.16;4995944;28;19932;-78
2021/10/25 04:29:30;;;;;;;;;;;;;;;13.26;nan;98468.88;4998074;28;20300;-78
2021/10/25 04:31:58;;;;;;;;;;;;;;;13.64;nan;98465.88;5005874;28;20016;-78
2021/10/25 04:34:25;;;;;;;;;;;;;;;13.58;nan;98470.50;4985391;28;19947;-77
2021/10/25 04:37:12;;;;;;;;;;;;;;;13.58;nan;98468.50;5004547;28;19929;-78
2021/10/25 04:39:45;;;;;;;;;;;;;;;13.57;nan;98471.75;5011384;28;19931;-78
2021/10/25 04:42:16;;;;;;;;;;;;;;;13.64;nan;98472.28;4994313;28;19968;-78
2021/10/25 04:44:44;;;;;;;;;;;;;;;13.74;nan;98481.53;5006638;28;19936;-78
2021/10/25 04:47:12;;;;;;;;;;;;;;;13.66;nan;98483.03;5057969;28;19925;-78
2021/10/25 04:49:40;;;;;;;;;;;;;;;13.31;nan;98487.16;5041454;28;20057;-78
2021/10/25 04:52:27;;;;;;;;;;;;;;;13.65;nan;98489.88;5058014;28;19928;-77
2021/10/25 04:54:54;;;;;;;;;;;;;;;13.46;nan;98499.44;5057591;28;19928;-78
2021/10/25 04:57:22;;;;;;;;;;;;;;;13.54;nan;98486.72;5037938;28;19925;-78
2021/10/25 04:59:49;;;;;;;;;;;;;;;13.40;nan;98484.41;5071131;28;19931;-78
2021/10/25 05:02:16;;;;;;;;;;;;;;;13.46;nan;98482.59;5054276;28;20375;-78
2021/10/25 05:04:44;;;;;;;;;;;;;;;13.39;nan;98494.06;5053239;28;20038;-78
2021/10/25 05:07:11;;;;;;;;;;;;;;;13.31;nan;98495.56;5057514;28;19951;-78
2021/10/25 05:09:38;;;;;;;;;;;;;;;13.55;nan;98502.28;5068020;28;19928;-78
2021/10/25 05:12:12;;;;;;;;;;;;;;;13.60;nan;98490.50;5074229;28;20280;-78
2021/10/25 05:14:41;;;;;;;;;;;;;;;13.55;nan;98493.88;5050905;28;19973;-78
2021/10/25 05:17:08;;;;;;;;;;;;;;;13.32;nan;98497.13;5073738;28;19928;-78
2021/10/25 05:19:38;;;;;;;;;;;;;;;13.58;nan;98490.94;5066184;28;20341;-78
2021/10/25 05:22:13;;;;;;;;;;;;;;;13.34;nan;98486.25;5074990;28;20272;-78
2021/10/25 05:24:42;;;;;;;;;;;;;;;13.49;nan;98495.69;5077392;28;19932;-77
2021/10/25 05:27:11;;;;;;;;;;;;;;;13.32;nan;98485.91;5060876;28;20363;-77
2021/10/25 05:29:38;;;;;;;;;;;;;;;13.14;nan;98494.16;5095284;28;20368;-78
2021/10/25 05:32:06;;;;;;;;;;;;;;;13.20;nan;98495.16;5073868;28;20367;-78
2021/10/25 05:34:34;;;;;;;;;;;;;;;13.16;nan;98491.69;5076057;28;19977;-77
2021/10/25 05:37:01;;;;;;;;;;;;;;;13.08;nan;98495.97;5073810;28;19925;-78
2021/10/25 05:39:30;;;;;;;;;;;;;;;13.02;nan;98484.56;5070087;28;19924;-78
2021/10/25 05:41:59;;;;;;;;;;;;;;;13.13;nan;98498.22;5063683;28;19925;-78
2021/10/25 05:44:27;;;;;;;;;;;;;;;12.97;nan;98484.31;5072247;28;19931;-78
2021/10/25 05:46:54;;;;;;;;;;;;;;;12.87;nan;98485.47;5073458;28;19939;-77
2021/10/25 05:49:21;;;;;;;;;;;;;;;13.03;nan;98488.13;5069273;28;20376;-78
2021/10/25 05:51:49;;;;;;;;;;;;;;;13.12;nan;98491.03;5073551;28;19925;-78
2021/10/25 05:54:17;;;;;;;;;;;;;;;13.24;nan;98485.38;5086878;28;19928;-78
2021/10/25 05:56:46;;;;;;;;;;;;;;;13.11;nan;98495.88;5073081;28;19935;-78
2021/10/25 05:59:14;;;;;;;;;;;;;;;13.03;nan;98496.53;5068840;28;20402;-78
2021/10/25 06:01:45;;;;;;;;;;;;;;;13.21;nan;98491.13;5077073;28;19924;-77
2021/10/25 06:04:25;;;;;;;;;;;;;;;13.35;nan;98496.22;5076759;28;19932;-78
2021/10/25 06:07:18;;;;;;;;;;;;;;;13.67;nan;98495.84;5090522;28;19928;-78
2021/10/25 06:09:48;;;;;;;;;;;;;;;13.50;nan;98486.03;5076465;28;19934;-78
2021/10/25 06:12:18;;;;;;;;;;;;;;;13.77;nan;98498.25;5056508;28;19930;-78
2021/10/25 06:15:25;;;;;;;;;;;;;;;13.59;nan;98498.13;5057106;28;19934;-78
2021/10/25 06:17:55;;;;;;;;;;;;;;;13.42;nan;98498.78;5060315;28;19950;-78
2021/10/25 06:20:23;;;;;;;;;;;;;;;13.54;nan;98497.94;5094165;28;19925;-78
2021/10/25 06:22:53;;;;;;;;;;;;;;;13.54;nan;98489.50;5072436;28;19931;-78
2021/10/25 06:25:32;;;;;;;;;;;;;;;13.80;nan;98488.09;5087717;28;19924;-78
2021/10/25 06:28:06;;;;;;;;;;;;;;;14.02;nan;98483.25;5040309;28;19924;-78
2021/10/25 06:30:35;;;;;;;;;;;;;;;13.96;nan;98476.69;5050488;28;19931;-78
2021/10/25 06:33:04;;;;;;;;;;;;;;;13.65;nan;98481.47;5072450;28;20018;-78
2021/10/25 06:36:07;;;;;;;;;;;;;;;13.20;nan;98481.91;5009543;28;19929;-78
2021/10/25 06:39:12;;;;;;;;;;;;;;;13.18;nan;98472.38;4992657;28;19932;-78
2021/10/25 06:41:46;;;;;;;;;;;;;;;13.02;nan;98484.56;4991450;28;19932;-77
2021/10/25 06:44:21;;;;;;;;;;;;;;;12.96;nan;98493.97;4992123;28;19955;-78
2021/10/25 06:46:49;;;;;;;;;;;;;;;12.98;nan;98485.91;4979091;28;19952;-78
2021/10/25 06:49:20;;;;;;;;;;;;;;;13.05;nan;98494.09;4976885;28;19932;-78
2021/10/25 06:51:48;;;;;;;;;;;;;;;13.43;nan;98491.91;4985618;28;19925;-82
2021/10/25 06:54:18;;;;;;;;;;;;;;;13.23;nan;98489.44;4998413;28;19929;-80
2021/10/25 06:56:45;;;;;;;;;;;;;;;13.30;nan;98496.81;5000435;28;20316;-80
2021/10/25 06:59:15;;;;;;;;;;;;;;;12.99;nan;98496.66;4989896;28;19926;-84
2021/10/25 07:01:42;;;;;;;;;;;;;;;13.10;nan;98499.88;4982582;28;19929;-83
2021/10/25 07:04:09;;;;;;;;;;;;;;;12.86;nan;98503.53;5020378;28;19925;-83
2021/10/25 07:06:38;;;;;;;;;;;;;;;12.81;nan;98504.91;4974812;28;19926;-84
2021/10/25 07:09:07;;;;;;;;;;;;;;;12.70;nan;98505.25;4963788;28;19948;-84
2021/10/25 07:11:35;;;;;;;;;;;;;;;12.86;nan;98514.75;5032178;28;19951;-84
2021/10/25 07:14:06;;;;;;;;;;;;;;;12.50;nan;98527.13;5049596;28;19955;-83
2021/10/25 07:17:02;;;;;;;;;;;;;;;12.63;nan;98530.69;5031573;28;19924;-83
2021/10/25 08:05:04;;;;;;;;;;;;;;;14.06;nan;98549.28;5029031;28;19940;-89
2021/10/25 08:07:26;;;;;;;;;;;;;;;14.07;nan;98555.69;5030662;28;19973;-89
2021/10/25 08:10:12;;;;;;;;;;;;;;;13.88;nan;98556.81;5022983;28;19986;-90
2021/10/25 08:12:48;;;;;;;;;;;;;;;13.92;nan;98554.63;5030692;28;19924;-90
2021/10/25 08:15:22;;;;;;;;;;;;;;;14.00;nan;98561.56;5006898;28;19925;-87
2021/10/25 08:17:55;;;;;;;;;;;;;;;14.15;nan;98560.59;5023096;28;19925;-87
2021/10/25 08:20:23;;;;;;;;;;;;;;;14.08;nan;98551.63;5022827;28;19924;-87
2021/10/25 08:22:50;;;;;;;;;;;;;;;14.18;nan;98556.06;5003253;28;19931;-88
2021/10/25 08:25:17;;;;;;;;;;;;;;;14.81;nan;98556.41;5006276;28;19966;-88
2021/10/25 08:28:02;;;;;;;;;;;;;;;14.61;nan;98560.84;5008800;28;19925;-88
2021/10/25 08:30:31;;;;;;;;;;;;;;;14.46;nan;98561.38;5039001;28;19932;-89
2021/10/25 08:41:05;;;;;;;;;;;;;;;14.83;nan;98548.25;5005172;28;19933;-86
2021/10/25 08:43:34;;;;;;;;;;;;;;;14.99;nan;98539.56;5022615;28;19931;-87
2021/10/25 08:46:05;;;;;;;;;;;;;;;15.23;nan;98534.91;5021836;28;20372;-88
2021/10/25 08:48:33;;;;;;;;;;;;;;;15.15;nan;98539.28;5021721;28;20388;-87
2021/10/25 08:51:01;;;;;;;;;;;;;;;15.09;nan;98541.13;5022389;28;19931;-87
2021/10/25 08:53:28;;;;;;;;;;;;;;;14.99;nan;98541.59;5011986;28;19925;-86
2021/10/25 08:55:58;;;;;;;;;;;;;;;15.00;nan;98549.56;5017649;28;19946;-86
2021/10/25 08:58:50;;;;;;;;;;;;;;;14.90;nan;98544.38;5041611;28;19931;-88
2021/10/25 09:01:23;;;;;;;;;;;;;;;14.63;nan;98542.25;5056428;28;19924;-87
2021/10/25 09:04:14;;;;;;;;;;;;;;;14.97;nan;98550.50;5034056;28;19928;-85
2021/10/25 09:06:52;;;;;;;;;;;;;;;14.70;nan;98550.41;5034807;28;20489;-83
2021/10/25 09:09:24;;;;;;;;;;;;;;;14.92;nan;98559.53;5034857;28;19925;-84
2021/10/25 09:11:58;;;;;;;;;;;;;;;14.61;nan;98566.47;5031147;28;19925;-81
2021/10/25 09:14:27;;;;;;;;;;;;;;;14.97;nan;98556.13;5034417;28;19932;-84
2021/10/25 09:17:04;;;;;;;;;;;;;;;14.97;nan;98555.31;5018758;28;19931;-85
2021/10/25 09:19:41;;;;;;;;;;;;;;;14.82;nan;98571.22;5039509;28;20377;-83
2021/10/25 09:22:11;;;;;;;;;;;;;;;15.31;nan;98558.66;5033511;28;21227;-84
2021/10/25 09:24:39;;;;;;;;;;;;;;;15.24;nan;98552.56;5034470;28;19925;-85
2021/10/25 09:27:08;;;;;;;;;;;;;;;14.65;nan;98553.03;5031187;28;19932;-84
2021/10/25 09:29:39;;;;;;;;;;;;;;;15.12;nan;98554.28;5040135;28;20312;-84
2021/10/25 09:32:14;;;;;;;;;;;;;;;15.37;nan;98544.78;5021487;28;20307;-82
2021/10/25 09:35:17;;;;;;;;;;;;;;;14.67;nan;98542.91;5036601;28;19925;-83
2021/10/25 09:38:23;;;;;;;;;;;;;;;14.82;nan;98554.34;5034799;28;19928;-83
2021/10/25 09:51:28;;;;;;;;;;;;;;;15.54;nan;98555.28;5049504;28;19929;-79
2021/10/25 09:54:20;;;;;;;;;;;;;;;15.61;nan;98552.19;5038206;28;19925;-80
2021/10/25 09:57:07;;;;;;;;;;;;;;;14.95;nan;98567.03;5081379;28;19931;-81
2021/10/25 09:59:49;;;;;;;;;;;;;;;14.95;nan;98569.09;5068099;28;19924;-87
2021/10/25 10:02:24;;;;;;;;;;;;;;;15.12;nan;98565.53;5053222;28;19931;-83
2021/10/25 10:05:03;;;;;;;;;;;;;;;14.59;nan;98580.19;5042740;28;19939;-81
2021/10/25 10:07:33;;;;;;;;;;;;;;;14.39;nan;98584.16;5054498;28;19996;-81
2021/10/25 10:10:11;;;;;;;;;;;;;;;14.58;nan;98573.78;5039232;28;19924;-81
2021/10/25 10:12:43;;;;;;;;;;;;;;;14.54;nan;98573.13;5054034;28;19924;-82
2021/10/25 10:15:12;;;;;;;;;;;;;;;14.56;nan;98573.47;5086562;28;19932;-79
2021/10/25 10:18:07;;;;;;;;;;;;;;;14.62;nan;98573.63;5054061;28;19928;-81
2021/10/25 10:21:11;;;;;;;;;;;;;;;14.98;nan;98573.78;5040677;28;20508;-81
2021/10/25 10:23:42;;;;;;;;;;;;;;;14.62;nan;98579.25;5015642;28;19955;-82
2021/10/25 10:26:12;;;;;;;;;;;;;;;14.96;nan;98568.63;5026449;28;19936;-82
2021/10/25 10:28:44;;;;;;;;;;;;;;;15.18;nan;98555.22;5025689;28;19928;-82
2021/10/25 10:31:15;;;;;;;;;;;;;;;15.27;nan;98552.41;5030338;28;19933;-80
2021/10/25 10:33:54;;;;;;;;;;;;;;;15.20;nan;98555.53;5028676;28;19929;-80
2021/10/25 10:36:23;;;;;;;;;;;;;;;14.71;nan;98565.25;4999728;28;20582;-84
2021/10/25 10:39:09;;;;;;;;;;;;;;;14.57;nan;98566.59;5035667;28;20376;-84
2021/10/25 10:41:57;;;;;;;;;;;;;;;14.59;nan;98574.56;5015235;28;19925;-79
2021/10/25 10:44:59;;;;;;;;;;;;;;;15.03;nan;98570.34;5024728;28;19931;-81
2021/10/25 10:47:39;;;;;;;;;;;;;;;15.05;nan;98567.84;5021041;28;19929;-79
2021/10/25 10:50:20;;;;;;;;;;;;;;;14.92;nan;98570.78;5034870;28;19925;-79
2021/10/25 10:53:04;;;;;;;;;;;;;;;15.21;nan;98574.00;5017049;28;19931;-79
2021/10/25 10:55:35;;;;;;;;;;;;;;;15.16;nan;98565.38;5071412;28;19924;-78
2021/10/25 11:00:34;;;;;;;;;;;;;;;14.99;nan;98567.69;5072465;28;19976;-79
2021/10/25 11:03:07;;;;;;;;;;;;;;;15.17;nan;98570.56;5059458;28;19931;-78
2021/10/25 11:05:42;;;;;;;;;;;;;;;15.03;nan;98571.13;5084882;28;19925;-78
2021/10/25 11:08:11;;;;;;;;;;;;;;;15.09;nan;98566.47;5087311;28;19924;-78
2021/10/25 11:10:42;;;;;;;;;;;;;;;15.11;nan;98575.22;5076560;28;19992;-78
2021/10/25 11:13:20;;;;;;;;;;;;;;;15.36;nan;98569.31;5085050;28;20376;-78
2021/10/25 11:15:52;;;;;;;;;;;;;;;15.51;nan;98566.72;5084843;28;19954;-78
2021/10/25 11:18:24;;;;;;;;;;;;;;;16.02;nan;98567.63;5069372;28;20374;-78
2021/10/25 11:20:53;;;;;;;;;;;;;;;15.93;nan;98571.22;5077183;28;19974;-78
2021/10/25 11:23:23;;;;;;;;;;;;;;;15.67;nan;98563.59;5073461;28;19925;-78
2021/10/25 11:25:50;;;;;;;;;;;;;;;15.75;nan;98565.59;5055220;28;19931;-78
2021/10/25 11:28:19;;;;;;;;;;;;;;;15.72;nan;98572.19;5072843;28;19946;-78
2021/10/25 11:30:46;;;;;;;;;;;;;;;16.16;nan;98573.38;5073089;28;20418;-79
2021/10/25 11:33:17;;;;;;;;;;;;;;;16.03;nan;98566.38;5073168;28;19931;-78
2021/10/25 11:35:46;;;;;;;;;;;;;;;15.89;nan;98559.34;5055346;28;19925;-78
2021/10/25 11:38:13;;;;;;;;;;;;;;;16.10;nan;98558.38;5077102;28;19987;-78
2021/10/25 11:40:41;;;;;;;;;;;;;;;15.96;nan;98570.28;5059222;28;19924;-78
2021/10/25 11:43:09;;;;;;;;;;;;;;;16.23;nan;98561.81;5076927;28;19924;-78
2021/10/25 11:45:37;;;;;;;;;;;;;;;16.22;nan;98565.09;5076367;28;20137;-79
2021/10/25 11:48:04;;;;;;;;;;;;;;;16.55;nan;98570.81;5079291;28;19928;-78
2021/10/25 11:50:32;;;;;;;;;;;;;;;16.34;nan;98566.94;5056783;28;19931;-79
2021/10/25 11:53:03;;;;;;;;;;;;;;;16.31;nan;98572.75;5077718;28;19984;-80
2021/10/25 11:55:34;;;;;;;;;;;;;;;16.04;nan;98577.16;5086202;28;20291;-79
2021/10/25 11:58:03;;;;;;;;;;;;;;;16.07;nan;98567.78;5070541;28;19924;-78
2021/10/25 12:00:34;;;;;;;;;;;;;;;15.73;nan;98578.59;5076248;28;19925;-77
2021/10/25 12:03:21;;;;;;;;;;;;;;;16.00;nan;98575.75;5045991;28;19924;-78
2021/10/25 12:05:50;;;;;;;;;;;;;;;15.85;nan;98584.09;5078410;28;19924;-78
2021/10/25 12:08:19;;;;;;;;;;;;;;;16.31;nan;98589.66;5095414;28;19933;-78
2021/10/25 12:10:48;;;;;;;;;;;;;;;15.93;nan;98579.69;5077978;28;20367;-78
2021/10/25 12:13:16;;;;;;;;;;;;;;;15.88;nan;98585.97;5077447;28;20268;-78
2021/10/25 12:15:47;;;;;;;;;;;;;;;15.93;nan;98587.38;5096155;28;19931;-77
2021/10/25 12:18:15;;;;;;;;;;;;;;;16.11;nan;98588.09;5077387;28;20512;-78
2021/10/25 12:20:42;;;;;;;;;;;;;;;15.81;nan;98580.63;5092637;28;19924;-78
2021/10/25 12:23:27;;;;;;;;;;;;;;;16.15;nan;98583.09;5058666;28;19929;-79
2021/10/25 12:26:00;;;;;;;;;;;;;;;15.93;nan;98582.50;5076038;28;19931;-78
2021/10/25 12:28:27;;;;;;;;;;;;;;;15.94;nan;98588.91;5077974;28;20069;-79
2021/10/25 12:31:12;;;;;;;;;;;;;;;15.80;nan;98590.34;5057380;28;19924;-78
2021/10/25 12:33:42;;;;;;;;;;;;;;;15.61;nan;98591.59;5058116;28;19931;-79
2021/10/25 12:36:21;;;;;;;;;;;;;;;15.74;nan;98585.78;5080937;28;20295;-79
2021/10/25 12:38:52;;;;;;;;;;;;;;;15.79;nan;98585.97;5070762;28;19935;-79
2021/10/25 12:41:19;;;;;;;;;;;;;;;15.92;nan;98583.75;5062868;28;19924;-78
2021/10/25 12:43:49;;;;;;;;;;;;;;;16.00;nan;98581.41;5086573;28;19954;-79
2021/10/25 12:46:22;;;;;;;;;;;;;;;15.81;nan;98580.63;5079288;28;19931;-78
2021/10/25 12:48:53;;;;;;;;;;;;;;;15.68;nan;98585.66;5080047;28;19933;-79
2021/10/25 12:51:22;;;;;;;;;;;;;;;15.48;nan;98579.69;5078509;28;20572;-79
2021/10/25 12:53:51;;;;;;;;;;;;;;;15.21;nan;98588.06;5057742;28;20399;-79
2021/10/25 12:56:24;;;;;;;;;;;;;;;15.27;nan;98580.56;5034775;28;20409;-77
2021/10/25 12:59:01;;;;;;;;;;;;;;;15.07;nan;98577.38;5079409;28;19928;-77
2021/10/25 13:01:29;;;;;;;;;;;;;;;15.22;nan;98572.72;5071697;28;19924;-78
2021/10/25 13:03:57;;;;;;;;;;;;;;;15.39;nan;98576.06;5066099;28;19924;-80
2021/10/25 13:06:30;;;;;;;;;;;;;;;15.53;nan;98593.16;5068089;28;19924;-78
2021/10/25 13:09:01;;;;;;;;;;;;;;;14.95;nan;98581.09;5089070;28;19924;-77
2021/10/25 13:11:28;;;;;;;;;;;;;;;15.77;nan;98574.38;5088945;28;19924;-77
2021/10/25 13:13:58;;;;;;;;;;;;;;;15.52;nan;98563.44;5079040;28;19973;-78
2021/10/25 13:16:42;;;;;;;;;;;;;;;15.71;nan;98575.47;5089435;28;19928;-78
2021/10/25 13:19:10;;;;;;;;;;;;;;;15.15;nan;98566.63;5077414;28;20291;-78
2021/10/25 13:21:39;;;;;;;;;;;;;;;14.94;nan;98568.28;5051021;28;19925;-78
2021/10/25 13:24:07;;;;;;;;;;;;;;;15.23;nan;98577.13;5071492;28;19924;-78
2021/10/25 13:26:38;;;;;;;;;;;;;;;15.60;nan;98564.66;5072820;28;19928;-78
2021/10/25 13:29:06;;;;;;;;;;;;;;;15.49;nan;98564.38;5072445;28;19925;-78
2021/10/25 13:35:23;;;;;;;;;;;;;;;15.69;nan;98561.84;5041897;28;19924;-78
2021/10/25 13:37:55;;;;;;;;;;;;;;;16.06;nan;98552.13;5060533;28;19930;-79
2021/10/25 13:40:24;;;;;;;;;;;;;;;15.45;nan;98541.19;5087821;28;19931;-78
2021/10/25 13:43:17;;;;;;;;;;;;;;;15.54;nan;98544.03;5060691;28;19924;-78
2021/10/25 13:46:46;;;;;;;;;;;;;;;;;;;;;
2021/10/25 13:50:10;;;;;;;;;;;;;;;16.02;nan;98540.22;5066607;28;19969;-78
2021/10/25 13:52:37;;;;;;;;;;;;;;;16.22;nan;98543.31;5022698;28;19935;-78
2021/10/25 13:55:06;;;;;;;;;;;;;;;15.97;nan;98542.91;5057359;28;20287;-78
2021/10/25 13:57:38;;;;;;;;;;;;;;;15.60;nan;98544.97;5057425;28;19924;-78
2021/10/25 14:00:09;;;;;;;;;;;;;;;15.64;nan;98547.63;5076085;28;19924;-78
2021/10/25 14:02:41;;;;;;;;;;;;;;;15.40;nan;98544.66;5060629;28;20273;-78
2021/10/25 14:05:10;;;;;;;;;;;;;;;15.18;nan;98538.34;5067098;28;20414;-78
2021/10/25 14:07:37;;;;;;;;;;;;;;;15.28;nan;98541.97;5033269;28;20388;-78
2021/10/25 14:10:10;;;;;;;;;;;;;;;15.80;nan;98542.44;5071043;28;19924;-78
2021/10/25 14:12:38;;;;;;;;;;;;;;;15.93;nan;98537.41;5071391;28;20385;-78
2021/10/25 14:17:45;;;;;;;;;;;;;;;15.51;nan;98542.16;5080467;28;19932;-78
2021/10/25 14:20:13;;;;;;;;;;;;;;;15.86;nan;98537.75;5088729;28;19950;-78
2021/10/25 14:22:41;;;;;;;;;;;;;;;15.85;nan;98533.38;5066544;28;20268;-82
2021/10/25 14:25:09;;;;;;;;;;;;;;;15.60;nan;98542.13;5053604;28;19925;-83
2021/10/25 14:27:38;;;;;;;;;;;;;;;15.42;nan;98547.00;5054664;28;19924;-85
2021/10/25 14:30:06;;;;;;;;;;;;;;;15.34;nan;98551.34;5061193;28;20364;-84
2021/10/25 14:32:35;;;;;;;;;;;;;;;15.15;nan;98564.59;5083370;28;20574;-81
2021/10/25 14:35:04;;;;;;;;;;;;;;;15.25;nan;98560.53;5037243;28;20280;-81
2021/10/25 14:37:40;;;;;;;;;;;;;;;15.15;nan;98567.41;5089419;28;19924;-80
2021/10/25 14:40:12;;;;;;;;;;;;;;;15.29;nan;98558.38;5085416;28;19972;-80
2021/10/25 14:43:00;;;;;;;;;;;;;;;15.42;nan;98559.03;5098069;28;19925;-81
2021/10/25 14:45:32;;;;;;;;;;;;;;;15.17;nan;98567.75;5104598;28;19938;-80
2021/10/25 14:48:21;;;;;;;;;;;;;;;15.07;nan;98563.31;5095389;28;20424;-80
2021/10/25 14:53:41;;;;;;;;;;;;;;;14.77;nan;98564.19;5091484;28;19923;-80
2021/10/25 14:56:10;;;;;;;;;;;;;;;14.91;nan;98571.25;5054408;28;20444;-80
2021/10/25 14:58:37;;;;;;;;;;;;;;;15.15;nan;98567.41;5064329;28;20276;-80
2021/10/25 15:01:05;;;;;;;;;;;;;;;15.14;nan;98568.66;5091736;28;19931;-80
2021/10/25 15:03:32;;;;;;;;;;;;;;;15.38;nan;98578.13;5105252;28;19924;-80
2021/10/25 15:05:59;;;;;;;;;;;;;;;14.76;nan;98585.13;5091918;28;20375;-79
2021/10/25 15:08:27;;;;;;;;;;;;;;;14.62;nan;98582.84;5101157;28;19924;-80
2021/10/25 15:10:55;;;;;;;;;;;;;;;14.56;nan;98581.09;5097615;28;19928;-81
2021/10/25 15:16:40;;;;;;;;;;;;;;;14.85;nan;98582.34;5059714;28;19924;-79
2021/10/25 15:19:08;;;;;;;;;;;;;;;15.00;nan;98577.69;5100469;28;19930;-79
2021/10/25 15:21:39;;;;;;;;;;;;;;;14.81;nan;98570.47;5096753;28;19953;-78
2021/10/25 15:24:06;;;;;;;;;;;;;;;15.11;nan;98574.44;5095835;28;19924;-80